Time;durP1;ratioP1;P1;durP2;ratioP2;P2;SDS_P1;SDS_P2;PMS_P1;PMS_P2;Temp;Humidity;BMP_temperature;BMP_pressure;BME280_temperature;BME280_humidity;BME280_pressure;Samples;Min_cycle;Max_cycle;Signal;HPM_P1;HPM_P2
2023/12/27 00:00:48;;;;;;;26.38;10.30;;;;;;;5.00;100.00;101942.97;4901634;29;20025;-77
2023/12/27 00:03:13;;;;;;;24.58;10.55;;;;;;;4.98;100.00;101938.63;4876762;29;20024;-77
2023/12/27 00:05:39;;;;;;;25.05;10.23;;;;;;;4.98;100.00;101936.84;4902940;29;20535;-77
2023/12/27 00:08:04;;;;;;;24.88;9.55;;;;;;;4.95;100.00;101931.63;4897773;29;20033;-77
2023/12/27 00:10:30;;;;;;;25.17;9.38;;;;;;;4.97;100.00;101934.22;4894525;29;20136;-74
2023/12/27 00:12:55;;;;;;;29.48;10.10;;;;;;;4.97;100.00;101928.91;4897880;29;20028;-76
2023/12/27 00:15:20;;;;;;;26.58;10.48;;;;;;;4.95;100.00;101925.41;4902126;29;20091;-73
2023/12/27 00:17:46;;;;;;;25.00;8.45;;;;;;;4.93;100.00;101925.44;4907478;29;20096;-73
2023/12/27 00:20:11;;;;;;;25.73;10.45;;;;;;;4.96;100.00;101916.50;4905349;29;20139;-74
2023/12/27 00:22:37;;;;;;;27.45;9.40;;;;;;;4.97;100.00;101926.25;4889563;29;20051;-73
2023/12/27 00:25:02;;;;;;;25.55;9.20;;;;;;;4.96;100.00;101927.16;4903639;29;20504;-74
2023/12/27 00:27:28;;;;;;;24.23;9.68;;;;;;;4.95;100.00;101933.38;4907477;29;20111;-74
2023/12/27 00:29:53;;;;;;;21.20;8.80;;;;;;;4.98;100.00;101922.63;4899798;29;20024;-74
2023/12/27 00:32:19;;;;;;;29.27;10.93;;;;;;;5.01;100.00;101926.09;4904063;29;20548;-73
2023/12/27 00:34:44;;;;;;;28.73;10.13;;;;;;;5.05;100.00;101917.06;4890037;29;20055;-74
2023/12/27 00:37:09;;;;;;;24.55;9.77;;;;;;;5.05;100.00;101919.75;4892981;29;20043;-73
2023/12/27 00:39:35;;;;;;;27.85;9.75;;;;;;;5.11;100.00;101920.44;4904400;29;20038;-74
2023/12/27 00:42:00;;;;;;;27.92;9.95;;;;;;;5.14;100.00;101923.00;4902677;29;20024;-73
2023/12/27 00:44:25;;;;;;;25.35;9.85;;;;;;;5.15;100.00;101919.41;4890079;29;20061;-74
2023/12/27 00:46:51;;;;;;;23.60;9.57;;;;;;;5.14;100.00;101918.56;4904110;29;20350;-75
2023/12/27 00:49:16;;;;;;;26.50;9.02;;;;;;;5.10;100.00;101913.38;4907669;29;20036;-74
2023/12/27 00:51:42;;;;;;;25.55;9.05;;;;;;;5.11;100.00;101921.34;4889839;29;22036;-74
2023/12/27 00:54:07;;;;;;;24.30;9.88;;;;;;;5.12;100.00;101928.38;4910133;29;20119;-75
2023/12/27 00:56:33;;;;;;;22.90;9.18;;;;;;;5.12;100.00;101923.06;4891013;29;20485;-74
2023/12/27 00:58:59;;;;;;;23.38;9.18;;;;;;;5.13;100.00;101932.81;4893379;29;20036;-74
2023/12/27 01:01:24;;;;;;;27.00;9.60;;;;;;;5.14;100.00;101920.34;4907940;29;20024;-73
2023/12/27 01:03:49;;;;;;;26.67;9.38;;;;;;;5.14;100.00;101921.22;4893110;29;20043;-73
2023/12/27 01:06:14;;;;;;;26.00;10.95;;;;;;;5.17;100.00;101921.13;4894734;29;20035;-74
2023/12/27 01:08:40;;;;;;;21.50;8.43;;;;;;;5.12;100.00;101906.19;4885732;29;20032;-74
2023/12/27 01:11:05;;;;;;;27.58;9.48;;;;;;;5.11;100.00;101908.00;4907299;29;20068;-73
2023/12/27 01:13:31;;;;;;;23.00;9.20;;;;;;;5.06;100.00;101908.13;4897991;29;20107;-73
2023/12/27 01:15:59;;;;;;;23.65;9.32;;;;;;;5.04;100.00;101898.47;4899880;29;20032;-74
2023/12/27 01:18:24;;;;;;;27.10;9.70;;;;;;;5.04;100.00;101893.16;4892195;29;20087;-73
2023/12/27 01:20:49;;;;;;;21.83;9.27;;;;;;;5.05;100.00;101892.19;4881028;29;20036;-77
2023/12/27 01:23:14;;;;;;;25.30;9.25;;;;;;;5.04;100.00;101888.69;4896374;29;20054;-77
2023/12/27 01:25:40;;;;;;;26.85;9.90;;;;;;;4.99;100.00;101889.75;4896301;29;20032;-76
2023/12/27 01:28:05;;;;;;;24.75;9.57;;;;;;;4.94;100.00;101897.91;4882807;29;20119;-76
2023/12/27 01:30:31;;;;;;;27.08;10.63;;;;;;;4.90;100.00;101896.25;4882089;29;20101;-77
2023/12/27 01:32:56;;;;;;;28.00;9.52;;;;;;;4.89;100.00;101887.41;4885889;29;20028;-77
2023/12/27 01:35:21;;;;;;;22.95;9.98;;;;;;;4.90;100.00;101890.91;4883644;29;20138;-76
2023/12/27 01:37:46;;;;;;;24.90;9.10;;;;;;;4.94;100.00;101897.03;4903314;29;20120;-76
2023/12/27 01:40:12;;;;;;;29.60;9.90;;;;;;;4.95;100.00;101899.66;4903291;29;20043;-77
2023/12/27 01:42:38;;;;;;;25.73;9.70;;;;;;;4.93;100.00;101893.47;4882980;29;20290;-76
2023/12/27 01:45:05;;;;;;;24.25;9.73;;;;;;;4.94;100.00;101899.69;4881347;29;20039;-77
2023/12/27 01:47:32;;;;;;;26.33;9.25;;;;;;;4.91;100.00;101903.31;4896110;29;20047;-76
2023/12/27 01:49:58;;;;;;;21.25;9.30;;;;;;;4.90;100.00;101904.25;4889262;29;20343;-77
2023/12/27 01:52:23;;;;;;;25.60;9.35;;;;;;;4.93;100.00;101913.94;4883863;29;20056;-76
2023/12/27 01:54:49;;;;;;;26.88;9.50;;;;;;;4.98;100.00;101914.63;4901849;29;20037;-76
2023/12/27 01:57:14;;;;;;;30.77;11.02;;;;;;;4.97;100.00;101912.91;4883449;29;20516;-76
2023/12/27 01:59:40;;;;;;;27.55;9.05;;;;;;;4.97;100.00;101907.59;4897891;29;20428;-77
2023/12/27 02:02:05;;;;;;;29.20;10.18;;;;;;;4.98;100.00;101898.66;4897842;29;20071;-76
2023/12/27 02:04:30;;;;;;;24.58;9.75;;;;;;;5.01;100.00;101893.25;4895705;29;20047;-77
2023/12/27 02:06:56;;;;;;;24.52;9.32;;;;;;;5.00;100.00;101897.69;4883646;29;20369;-76
2023/12/27 02:09:22;;;;;;;24.27;8.95;;;;;;;4.99;100.00;101892.41;4884269;29;20039;-77
2023/12/27 02:11:47;;;;;;;27.27;9.40;;;;;;;5.02;100.00;101889.66;4880392;29;20028;-76
2023/12/27 02:14:12;;;;;;;26.13;9.32;;;;;;;5.03;100.00;101883.41;4903338;29;20032;-76
2023/12/27 02:16:38;;;;;;;27.25;8.57;;;;;;;5.04;100.00;101887.81;4903399;29;20196;-77
2023/12/27 02:19:05;;;;;;;21.67;8.02;;;;;;;5.06;100.00;101892.16;4877888;29;20028;-76
2023/12/27 02:21:31;;;;;;;23.80;8.20;;;;;;;5.07;100.00;101893.03;4897939;29;20027;-76
2023/12/27 02:24:00;;;;;;;28.17;8.15;;;;;;;5.09;100.00;101891.19;4880008;29;20047;-76
2023/12/27 02:26:26;;;;;;;26.08;8.38;;;;;;;5.11;100.00;101884.03;4901757;29;20040;-76
2023/12/27 02:28:51;;;;;;;24.75;8.10;;;;;;;5.12;100.00;101869.75;4882830;29;20024;-76
2023/12/27 02:31:17;;;;;;;24.23;8.70;;;;;;;5.14;100.00;101867.03;4880484;29;20033;-77
2023/12/27 02:33:46;;;;;;;22.42;8.35;;;;;;;5.12;100.00;101871.56;4899571;29;20032;-77
2023/12/27 02:36:11;;;;;;;22.30;8.10;;;;;;;5.10;100.00;101876.94;4882670;29;20200;-77
2023/12/27 02:38:36;;;;;;;25.25;7.97;;;;;;;5.10;100.00;101876.09;4884258;29;20392;-77
2023/12/27 02:41:02;;;;;;;26.00;8.25;;;;;;;5.11;100.00;101869.81;4898503;29;20115;-77
2023/12/27 02:43:28;;;;;;;21.38;7.78;;;;;;;5.13;100.00;101866.19;4884940;29;20055;-77
2023/12/27 02:45:53;;;;;;;26.95;8.15;;;;;;;5.12;100.00;101856.44;4881324;29;20020;-77
2023/12/27 02:48:18;;;;;;;22.20;7.43;;;;;;;5.13;100.00;101852.00;4898336;29;20467;-77
2023/12/27 02:50:44;;;;;;;27.35;7.82;;;;;;;5.12;100.00;101848.44;4885714;29;20507;-77
2023/12/27 02:53:10;;;;;;;28.30;8.85;;;;;;;5.13;100.00;101846.66;4878945;29;20162;-77
2023/12/27 02:55:36;;;;;;;21.98;6.78;;;;;;;5.13;100.00;101839.53;4896748;29;20021;-76
2023/12/27 02:58:02;;;;;;;22.58;7.88;;;;;;;5.15;100.00;101840.34;4876127;29;20088;-77
2023/12/27 03:00:27;;;;;;;29.33;8.60;;;;;;;5.15;100.00;101835.00;4883394;29;20024;-77
2023/12/27 03:02:52;;;;;;;26.33;8.07;;;;;;;5.15;100.00;101837.66;4884461;29;20111;-77
2023/12/27 03:05:19;;;;;;;22.33;7.72;;;;;;;5.16;100.00;101828.75;4900723;29;20065;-77
2023/12/27 03:07:44;;;;;;;31.05;8.07;;;;;;;5.18;100.00;101820.72;4903589;29;20020;-77
2023/12/27 03:10:11;;;;;;;24.98;7.90;;;;;;;5.18;100.00;101816.28;4893606;29;20039;-77
2023/12/27 03:12:36;;;;;;;28.95;8.00;;;;;;;5.19;100.00;101823.31;4876579;29;20477;-77
2023/12/27 03:15:02;;;;;;;27.00;7.72;;;;;;;5.20;100.00;101825.06;4884874;29;20036;-77
2023/12/27 03:17:27;;;;;;;23.80;7.97;;;;;;;5.18;100.00;101816.28;4892171;29;21975;-77
2023/12/27 03:19:53;;;;;;;21.60;8.68;;;;;;;5.18;100.00;101796.72;4884471;29;20029;-76
2023/12/27 03:22:18;;;;;;;21.17;8.32;;;;;;;5.18;100.00;101792.28;4878141;29;20039;-77
2023/12/27 03:24:43;;;;;;;24.35;7.93;;;;;;;5.17;100.00;101787.88;4901139;29;20303;-77
2023/12/27 03:27:09;;;;;;;24.20;6.80;;;;;;;5.18;100.00;101786.06;4880463;29;20401;-77
2023/12/27 03:29:34;;;;;;;25.38;8.15;;;;;;;5.19;100.00;101790.47;4879370;29;20334;-77
2023/12/27 03:31:59;;;;;;;25.77;7.95;;;;;;;5.19;100.00;101799.34;4894672;29;20075;-76
2023/12/27 03:34:24;;;;;;;24.20;7.75;;;;;;;5.18;100.00;101794.94;4892604;29;20569;-77
2023/12/27 03:36:50;;;;;;;27.92;7.53;;;;;;;5.19;100.00;101796.66;4879771;29;20111;-77
2023/12/27 03:39:15;;;;;;;27.83;8.10;;;;;;;5.17;100.00;101782.53;4899158;29;20032;-77
2023/12/27 03:41:40;;;;;;;20.92;7.20;;;;;;;5.18;100.00;101773.63;4904936;29;20028;-73
2023/12/27 03:44:06;;;;;;;20.45;6.47;;;;;;;5.16;100.00;101770.13;4889236;29;20028;-74
2023/12/27 03:46:31;;;;;;;24.33;7.75;;;;;;;5.17;100.00;101763.00;4893464;29;20044;-73
2023/12/27 03:48:56;;;;;;;29.20;8.73;;;;;;;5.16;100.00;101756.81;4909225;29;20068;-74
2023/12/27 03:51:22;;;;;;;27.00;7.45;;;;;;;5.14;100.00;101749.78;4892882;29;20044;-73
2023/12/27 03:53:47;;;;;;;20.60;7.85;;;;;;;5.17;100.00;101744.34;4908542;29;20028;-74
2023/12/27 03:56:13;;;;;;;22.67;7.25;;;;;;;5.12;100.00;101749.84;4888074;29;20025;-74
2023/12/27 03:58:41;;;;;;;22.33;7.45;;;;;;;5.13;100.00;101745.41;4892088;29;20028;-74
2023/12/27 04:01:07;;;;;;;24.42;8.10;;;;;;;5.10;100.00;101741.06;4907368;29;20037;-73
2023/12/27 04:03:33;;;;;;;24.50;8.25;;;;;;;5.10;100.00;101727.72;4906193;29;20117;-73
2023/12/27 04:05:58;;;;;;;22.02;8.45;;;;;;;5.09;100.00;101725.97;4891526;29;20029;-76
2023/12/27 04:08:23;;;;;;;28.20;7.85;;;;;;;5.08;100.00;101721.56;4898007;29;20370;-74
2023/12/27 04:10:49;;;;;;;23.00;8.95;;;;;;;5.08;100.00;101724.22;4889926;29;20059;-73
2023/12/27 04:13:14;;;;;;;22.27;8.73;;;;;;;5.08;100.00;101721.56;4904873;29;20413;-74
2023/12/27 04:15:39;;;;;;;26.15;9.05;;;;;;;5.09;100.00;101720.66;4912837;29;20039;-74
2023/12/27 04:18:07;;;;;;;23.42;8.15;;;;;;;5.08;100.00;101716.22;4909142;29;20544;-74
2023/12/27 04:20:32;;;;;;;25.05;9.05;;;;;;;5.11;100.00;101707.28;4897756;29;20040;-73
2023/12/27 04:22:57;;;;;;;25.52;9.15;;;;;;;5.10;100.00;101706.41;4893594;29;20039;-73
2023/12/27 04:25:22;;;;;;;29.33;8.85;;;;;;;5.13;100.00;101700.09;4908654;29;20028;-74
2023/12/27 04:27:48;;;;;;;22.33;7.85;;;;;;;5.16;100.00;101708.84;4908146;29;20059;-73
2023/12/27 04:30:13;;;;;;;23.65;8.32;;;;;;;5.23;100.00;101715.69;4908592;29;20036;-74
2023/12/27 04:32:39;;;;;;;25.02;9.25;;;;;;;5.24;100.00;101714.78;4891244;29;20070;-74
2023/12/27 04:35:04;;;;;;;23.05;8.25;;;;;;;5.27;100.00;101711.13;4895191;29;20513;-74
2023/12/27 04:37:30;;;;;;;26.20;9.35;;;;;;;5.30;100.00;101713.69;4904944;29;20059;-76
2023/12/27 04:39:55;;;;;;;26.92;9.18;;;;;;;5.31;100.00;101709.22;4909139;29;20047;-74
2023/12/27 04:42:20;;;;;;;20.77;8.18;;;;;;;5.32;100.00;101708.28;4909810;29;20481;-76
2023/12/27 04:44:45;;;;;;;28.45;9.23;;;;;;;5.38;100.00;101716.03;4906675;29;20033;-73
2023/12/27 04:47:11;;;;;;;21.40;7.72;;;;;;;5.41;100.00;101699.94;4891599;29;20564;-74
2023/12/27 04:49:36;;;;;;;30.52;9.32;;;;;;;5.44;100.00;101702.47;4902844;29;20032;-74
2023/12/27 04:52:01;;;;;;;24.60;8.05;;;;;;;5.45;100.00;101698.00;4900368;29;20040;-74
2023/12/27 04:54:26;;;;;;;25.48;8.95;;;;;;;5.50;100.00;101696.03;4894923;29;20028;-74
2023/12/27 04:56:54;;;;;;;23.52;8.45;;;;;;;5.54;100.00;101689.69;4887750;29;20041;-74
2023/12/27 04:59:20;;;;;;;30.77;8.73;;;;;;;5.55;100.00;101689.63;4892541;29;20028;-74
2023/12/27 05:01:46;;;;;;;21.80;8.00;;;;;;;5.57;100.00;101684.22;4907725;29;20021;-74
2023/12/27 05:04:11;;;;;;;24.95;8.57;;;;;;;5.56;100.00;101678.03;4911821;29;20083;-73
2023/12/27 05:06:36;;;;;;;24.88;8.32;;;;;;;5.54;100.00;101679.88;4905405;29;20446;-75
2023/12/27 05:09:04;;;;;;;27.42;8.65;;;;;;;5.56;100.00;101671.81;4884486;29;20155;-75
2023/12/27 05:11:29;;;;;;;24.48;8.07;;;;;;;5.55;100.00;101665.63;4906546;29;20032;-73
2023/12/27 05:13:55;;;;;;;23.52;7.72;;;;;;;5.55;100.00;101660.28;4911123;29;20060;-73
2023/12/27 05:16:20;;;;;;;31.40;9.27;;;;;;;5.58;100.00;101657.50;4911593;29;20024;-74
2023/12/27 05:18:45;;;;;;;28.48;7.72;;;;;;;5.59;100.00;101658.34;4892679;29;20031;-73
2023/12/27 05:21:13;;;;;;;21.13;7.65;;;;;;;5.60;100.00;101658.28;4903630;29;20067;-74
2023/12/27 05:23:38;;;;;;;26.40;8.90;;;;;;;5.60;100.00;101655.63;4890294;29;20036;-74
2023/12/27 05:26:05;;;;;;;23.27;7.60;;;;;;;5.60;100.00;101652.09;4911427;29;20469;-74
2023/12/27 05:28:30;;;;;;;24.42;8.32;;;;;;;5.58;100.00;101653.97;4905159;29;20060;-73
2023/12/27 05:30:56;;;;;;;22.75;8.05;;;;;;;5.59;100.00;101650.34;4887447;29;20028;-74
2023/12/27 05:33:21;;;;;;;22.77;8.32;;;;;;;5.63;100.00;101643.13;4889447;29;20115;-73
2023/12/27 05:35:47;;;;;;;24.92;8.25;;;;;;;5.62;100.00;101638.69;4906647;29;20100;-73
2023/12/27 05:38:12;;;;;;;22.25;8.32;;;;;;;5.58;100.00;101641.50;4894688;29;20058;-73
2023/12/27 05:40:37;;;;;;;20.55;6.85;;;;;;;5.58;100.00;101633.50;4906047;29;20463;-73
2023/12/27 05:43:03;;;;;;;23.95;7.68;;;;;;;5.55;100.00;101633.63;4901322;29;20033;-73
2023/12/27 05:45:29;;;;;;;22.83;7.53;;;;;;;5.56;100.00;101632.69;4905693;29;20453;-73
2023/12/27 05:47:54;;;;;;;22.00;8.50;;;;;;;5.60;100.00;101636.94;4891689;29;20273;-73
2023/12/27 05:50:19;;;;;;;27.70;9.57;;;;;;;5.62;100.00;101630.69;4892100;29;20072;-73
2023/12/27 05:52:45;;;;;;;22.30;8.82;;;;;;;5.62;100.00;101626.22;4887348;29;20106;-73
2023/12/27 05:55:10;;;;;;;21.92;8.13;;;;;;;5.65;100.00;101618.13;4906402;29;20056;-73
2023/12/27 05:57:35;;;;;;;22.15;7.85;;;;;;;5.66;100.00;101613.66;4907993;29;20516;-73
2023/12/27 06:00:01;;;;;;;24.88;8.02;;;;;;;5.70;100.00;101615.28;4908508;29;20042;-73
2023/12/27 06:02:29;;;;;;;25.70;9.35;;;;;;;5.70;100.00;101612.59;4902788;29;20451;-73
2023/12/27 06:04:57;;;;;;;27.40;9.60;;;;;;;5.70;100.00;101597.47;4896647;29;20032;-73
2023/12/27 06:07:22;;;;;;;21.98;7.70;;;;;;;5.70;100.00;101596.59;4898006;29;20445;-73
2023/12/27 06:09:48;;;;;;;27.45;8.88;;;;;;;5.69;100.00;101598.38;4901564;29;20115;-74
2023/12/27 06:12:13;;;;;;;20.67;7.95;;;;;;;5.69;100.00;101602.84;4883135;29;20036;-73
2023/12/27 06:14:41;;;;;;;24.23;7.65;;;;;;;5.68;100.00;101596.66;4901227;29;20040;-74
2023/12/27 06:17:06;;;;;;;20.10;7.90;;;;;;;5.68;100.00;101587.78;4894837;29;20612;-73
2023/12/27 06:19:31;;;;;;;24.05;8.52;;;;;;;5.69;100.00;101581.53;4885180;29;20115;-72
2023/12/27 06:21:57;;;;;;;23.38;8.00;;;;;;;5.70;100.00;101583.25;4906022;29;20137;-73
2023/12/27 06:24:23;;;;;;;22.77;8.13;;;;;;;5.70;100.00;101575.25;4882655;29;20532;-73
2023/12/27 06:26:48;;;;;;;19.27;7.22;;;;;;;5.70;100.00;101573.44;4901700;29;20040;-73
2023/12/27 06:29:14;;;;;;;23.33;7.53;;;;;;;5.72;100.00;101570.72;4884134;29;20054;-73
2023/12/27 06:31:39;;;;;;;21.00;8.05;;;;;;;5.73;100.00;101561.78;4904099;29;20403;-73
2023/12/27 06:34:04;;;;;;;22.65;7.68;;;;;;;5.72;100.00;101557.38;4885425;29;20411;-74
2023/12/27 06:36:30;;;;;;;24.48;7.30;;;;;;;5.73;100.00;101549.31;4903028;29;20453;-73
2023/12/27 06:38:55;;;;;;;21.85;6.70;;;;;;;5.74;100.00;101547.50;4899386;29;20043;-75
2023/12/27 06:41:20;;;;;;;17.40;6.97;;;;;;;5.72;100.00;101544.06;4900764;29;20060;-73
2023/12/27 06:43:45;;;;;;;23.40;7.45;;;;;;;5.72;100.00;101549.38;4908527;29;20058;-72
2023/12/27 06:46:11;;;;;;;21.63;7.15;;;;;;;5.74;100.00;101545.72;4899845;29;20401;-74
2023/12/27 06:48:36;;;;;;;21.85;7.38;;;;;;;5.73;100.00;101535.97;4904438;29;20092;-72
2023/12/27 06:51:06;;;;;;;18.20;6.20;;;;;;;5.77;100.00;101532.25;4899152;29;20044;-73
2023/12/27 06:53:32;;;;;;;20.95;6.88;;;;;;;5.79;100.00;101524.19;4887910;29;20036;-74
2023/12/27 06:55:57;;;;;;;18.00;6.60;;;;;;;5.80;100.00;101531.28;4901904;29;20048;-75
2023/12/27 06:58:22;;;;;;;20.52;6.32;;;;;;;5.81;100.00;101524.97;4901515;29;20043;-74
2023/12/27 07:00:48;;;;;;;17.65;6.32;;;;;;;5.82;100.00;101521.38;4900824;29;20395;-73
2023/12/27 07:03:13;;;;;;;17.42;6.07;;;;;;;5.84;100.00;101511.53;4885993;29;20039;-73
2023/12/27 07:05:39;;;;;;;17.95;6.75;;;;;;;5.87;100.00;101516.75;4896777;29;20033;-72
2023/12/27 07:08:04;;;;;;;18.40;6.40;;;;;;;5.89;100.00;101517.53;4907549;29;20025;-73
2023/12/27 07:10:30;;;;;;;19.02;7.28;;;;;;;5.92;100.00;101524.53;4909918;29;20039;-73
2023/12/27 07:12:55;;;;;;;20.23;7.72;;;;;;;5.93;100.00;101527.16;4904914;29;20389;-76
2023/12/27 07:15:20;;;;;;;17.83;6.50;;;;;;;5.96;100.00;101515.47;4889122;29;20043;-73
2023/12/27 07:17:46;;;;;;;15.57;6.10;;;;;;;5.99;100.00;101511.81;4900151;29;20056;-73
2023/12/27 07:20:11;;;;;;;21.38;7.45;;;;;;;6.00;100.00;101506.41;4881596;29;20150;-74
2023/12/27 07:22:37;;;;;;;18.80;6.93;;;;;;;6.04;100.00;101501.81;4882685;29;20425;-74
2023/12/27 07:25:02;;;;;;;19.45;6.88;;;;;;;6.05;100.00;101514.25;4888251;29;20419;-73
2023/12/27 07:27:28;;;;;;;19.45;7.55;;;;;;;6.08;100.00;101506.09;4900558;29;20035;-73
2023/12/27 07:29:53;;;;;;;18.65;7.35;;;;;;;6.09;100.00;101490.03;4903858;29;20059;-73
2023/12/27 07:32:18;;;;;;;15.55;5.97;;;;;;;6.11;100.00;101504.16;4880100;29;20031;-73
2023/12/27 07:34:44;;;;;;;18.95;6.47;;;;;;;6.14;100.00;101503.16;4879979;29;20467;-73
2023/12/27 07:37:09;;;;;;;18.00;6.55;;;;;;;6.16;100.00;101501.28;4896885;29;20157;-73
2023/12/27 07:39:34;;;;;;;18.77;7.35;;;;;;;6.18;100.00;101501.19;4881039;29;20131;-74
2023/12/27 07:42:00;;;;;;;19.42;7.72;;;;;;;6.22;100.00;101500.13;4897508;29;20524;-74
2023/12/27 07:44:26;;;;;;;18.90;7.15;;;;;;;6.23;100.00;101502.72;4879368;29;20048;-73
2023/12/27 07:46:52;;;;;;;18.65;7.13;;;;;;;6.24;100.00;101501.81;4881913;29;20089;-73
2023/12/27 07:49:18;;;;;;;22.92;7.90;;;;;;;6.26;100.00;101494.59;4877921;29;20408;-74
2023/12/27 07:51:43;;;;;;;21.20;7.78;;;;;;;6.29;100.00;101501.59;4887019;29;20111;-74
2023/12/27 07:54:09;;;;;;;19.58;7.28;;;;;;;6.29;100.00;101497.13;4907088;29;20043;-74
2023/12/27 07:56:35;;;;;;;19.92;7.40;;;;;;;6.33;100.00;101491.66;4884970;29;20028;-73
2023/12/27 07:59:00;;;;;;;22.08;8.35;;;;;;;6.33;100.00;101489.00;4905456;29;20039;-74
2023/12/27 08:01:30;;;;;;;18.98;7.05;;;;;;;6.36;100.00;101487.03;4901677;29;20044;-73
2023/12/27 08:03:55;;;;;;;18.77;7.90;;;;;;;6.37;100.00;101477.22;4904821;29;20038;-73
2023/12/27 08:06:21;;;;;;;19.80;7.85;;;;;;;6.38;100.00;101479.81;4887350;29;20036;-73
2023/12/27 08:08:46;;;;;;;19.55;8.02;;;;;;;6.42;100.00;101477.88;4908313;29;20072;-75
2023/12/27 08:11:12;;;;;;;21.30;7.95;;;;;;;6.44;100.00;101478.66;4888125;29;20060;-74
2023/12/27 08:13:38;;;;;;;21.30;7.95;;;;;;;6.44;100.00;101471.56;4901178;29;20035;-73
2023/12/27 08:16:03;;;;;;;19.55;7.68;;;;;;;6.46;100.00;101476.81;4904674;29;20036;-74
2023/12/27 08:18:29;;;;;;;18.75;7.03;;;;;;;6.47;100.00;101483.88;4885647;29;20028;-74
2023/12/27 08:20:55;;;;;;;19.35;7.53;;;;;;;6.48;100.00;101473.13;4878781;29;20069;-74
2023/12/27 08:23:20;;;;;;;21.00;7.57;;;;;;;6.51;100.00;101464.09;4890731;29;20247;-74
2023/12/27 08:25:46;;;;;;;18.02;7.07;;;;;;;6.53;100.00;101451.56;4884082;29;20578;-72
2023/12/27 08:28:11;;;;;;;18.38;7.05;;;;;;;6.53;100.00;101450.69;4910547;29;20041;-74
2023/12/27 08:30:37;;;;;;;19.55;7.90;;;;;;;6.57;100.00;101444.25;4902076;29;20137;-74
2023/12/27 08:33:06;;;;;;;19.05;7.35;;;;;;;6.58;100.00;101433.50;4887220;29;20140;-74
2023/12/27 08:35:35;;;;;;;19.80;6.67;;;;;;;6.61;100.00;101443.19;4890630;29;20107;-73
2023/12/27 08:38:00;;;;;;;19.33;7.03;;;;;;;6.62;100.00;101440.44;4903282;29;20039;-74
2023/12/27 08:40:25;;;;;;;18.38;7.57;;;;;;;6.64;100.00;101438.56;4905470;29;20127;-73
2023/12/27 08:42:51;;;;;;;19.33;6.88;;;;;;;6.67;100.00;101431.34;4900528;29;20032;-74
2023/12/27 08:45:16;;;;;;;19.77;7.32;;;;;;;6.68;100.00;101441.06;4902271;29;20460;-74
2023/12/27 08:47:43;;;;;;;18.48;6.25;;;;;;;6.70;100.00;101434.72;4906428;29;20083;-75
2023/12/27 08:50:09;;;;;;;20.20;7.43;;;;;;;6.72;100.00;101431.97;4907132;29;20091;-74
2023/12/27 08:52:35;;;;;;;19.10;5.95;;;;;;;6.74;100.00;101436.31;4883955;29;20140;-73
2023/12/27 08:55:02;;;;;;;19.10;6.85;;;;;;;6.76;100.00;101414.88;4877895;29;20449;-73
2023/12/27 08:57:27;;;;;;;19.35;6.47;;;;;;;6.77;100.00;101416.59;4899002;29;20536;-74
2023/12/27 08:59:52;;;;;;;19.58;6.70;;;;;;;6.79;100.00;101420.06;4902482;29;20132;-73
2023/12/27 09:02:18;;;;;;;18.88;7.22;;;;;;;6.80;100.00;101411.97;4899951;29;20037;-74
2023/12/27 09:04:43;;;;;;;18.27;5.82;;;;;;;6.82;100.00;101422.59;4885072;29;20035;-73
2023/12/27 09:07:08;;;;;;;19.42;6.10;;;;;;;6.85;100.00;101413.56;4902569;29;20083;-74
2023/12/27 09:09:33;;;;;;;21.70;8.02;;;;;;;6.86;100.00;101416.16;4908160;29;20029;-74
2023/12/27 09:11:59;;;;;;;18.65;5.95;;;;;;;6.88;100.00;101408.06;4897863;29;20598;-73
2023/12/27 09:14:25;;;;;;;16.73;6.22;;;;;;;6.89;100.00;101429.38;4904972;29;20163;-73
2023/12/27 09:16:50;;;;;;;17.13;5.53;;;;;;;6.92;100.00;101423.00;4896960;29;20667;-73
2023/12/27 09:19:16;;;;;;;16.13;5.70;;;;;;;6.93;100.00;101406.91;4886926;29;20076;-75
2023/12/27 09:21:47;;;;;;;17.88;6.15;;;;;;;6.94;100.00;101413.09;4879819;29;20028;-73
2023/12/27 09:24:13;;;;;;;20.20;5.88;;;;;;;6.95;100.00;101410.34;4897417;29;20431;-74
2023/12/27 09:26:38;;;;;;;18.55;6.20;;;;;;;6.97;100.00;101402.28;4898136;29;20123;-73
2023/12/27 09:29:04;;;;;;;17.25;5.60;;;;;;;6.98;100.00;101402.22;4881344;29;20032;-74
2023/12/27 09:31:30;;;;;;;19.00;5.43;;;;;;;7.00;100.00;101403.00;4909338;29;20455;-76
2023/12/27 09:34:02;;;;;;;16.67;5.22;;;;;;;7.01;100.00;101398.50;4902801;29;20043;-76
2023/12/27 09:36:28;;;;;;;17.40;5.53;;;;;;;7.03;100.00;101388.63;4885356;29;20078;-76
2023/12/27 09:38:53;;;;;;;14.18;4.90;;;;;;;7.06;100.00;101387.56;4873116;29;20033;-76
2023/12/27 09:41:19;;;;;;;17.55;5.10;;;;;;;7.07;100.00;101379.50;4884730;29;20484;-76
2023/12/27 09:43:46;;;;;;;17.05;5.40;;;;;;;7.09;100.00;101387.44;4896122;29;20485;-76
2023/12/27 09:46:14;;;;;;;17.80;5.75;;;;;;;7.12;100.00;101373.94;4879369;29;20061;-76
2023/12/27 09:48:40;;;;;;;19.45;5.80;;;;;;;7.15;100.00;101373.78;4900426;29;20028;-77
2023/12/27 09:51:06;;;;;;;14.75;4.38;;;;;;;7.20;100.00;101382.41;4902869;29;20404;-76
2023/12/27 09:53:32;;;;;;;14.35;4.65;;;;;;;7.23;100.00;101376.91;4893221;29;20567;-76
2023/12/27 09:55:59;;;;;;;13.38;4.30;;;;;;;7.27;100.00;101372.28;4895028;29;20080;-76
2023/12/27 09:58:30;;;;;;;13.82;4.50;;;;;;;7.30;100.00;101372.13;4902794;29;20127;-76
2023/12/27 10:01:01;;;;;;;12.98;4.38;;;;;;;7.34;100.00;101366.53;4902216;29;20473;-77
2023/12/27 10:03:35;;;;;;;15.10;4.53;;;;;;;7.37;100.00;101370.84;4886112;29;20124;-76
2023/12/27 10:06:25;;;;;;;11.13;3.88;;;;;;;7.42;100.00;101373.28;4883215;29;20028;-77
2023/12/27 10:08:50;;;;;;;11.00;3.65;;;;;;;7.45;100.00;101378.47;4887822;29;20369;-76
2023/12/27 10:11:18;;;;;;;10.70;3.15;;;;;;;7.48;100.00;101368.50;4885716;29;20028;-77
2023/12/27 10:13:45;;;;;;;11.27;2.65;;;;;;;7.53;100.00;101362.91;4897258;29;20055;-77
2023/12/27 10:16:10;;;;;;;8.43;2.50;;;;;;;7.57;100.00;101364.47;4885546;29;20492;-77
2023/12/27 10:18:35;;;;;;;10.32;2.92;;;;;;;7.61;100.00;101358.00;4901485;29;20135;-76
2023/12/27 10:21:01;;;;;;;6.88;2.60;;;;;;;7.65;100.00;101356.03;4897402;29;20123;-76
2023/12/27 10:23:27;;;;;;;7.47;2.65;;;;;;;7.68;100.00;101363.91;4879886;29;20040;-76
2023/12/27 10:25:52;;;;;;;9.55;3.00;;;;;;;7.72;100.00;101349.44;4895037;29;20039;-76
2023/12/27 10:28:24;;;;;;;7.65;2.67;;;;;;;7.74;100.00;101344.84;4898858;29;20506;-76
2023/12/27 10:30:53;;;;;;;8.10;2.42;;;;;;;7.78;100.00;101345.56;4894511;29;20020;-76
2023/12/27 10:33:20;;;;;;;9.73;2.58;;;;;;;7.81;100.00;101335.53;4888739;29;20036;-76
2023/12/27 10:35:47;;;;;;;13.95;3.13;;;;;;;7.83;100.00;101338.13;4898592;29;20143;-76
2023/12/27 10:38:12;;;;;;;8.73;2.25;;;;;;;7.86;100.00;101337.97;4885621;29;20326;-76
2023/12/27 10:40:39;;;;;;;7.18;2.05;;;;;;;7.90;100.00;101336.00;4885221;29;20032;-77
2023/12/27 10:43:05;;;;;;;7.47;2.83;;;;;;;7.91;100.00;101333.25;4904841;29;20023;-74
2023/12/27 10:45:30;;;;;;;8.52;2.60;;;;;;;7.93;100.00;101328.66;4906239;29;20488;-73
2023/12/27 10:48:06;;;;;;;8.50;2.50;;;;;;;7.94;100.00;101329.53;4881212;29;20141;-74
2023/12/27 10:50:34;;;;;;;10.75;3.38;;;;;;;7.95;100.00;101326.78;4880720;29;20036;-74
2023/12/27 10:53:05;;;;;;;14.40;3.22;;;;;;;7.96;100.00;101317.78;4894178;29;20052;-73
2023/12/27 10:55:32;;;;;;;11.13;3.13;;;;;;;7.99;100.00;101314.94;4904861;29;20037;-73
2023/12/27 10:57:59;;;;;;;9.25;3.00;;;;;;;8.01;100.00;101299.66;4899137;29;20174;-72
2023/12/27 11:00:25;;;;;;;12.73;3.25;;;;;;;8.01;100.00;101304.16;4895603;29;20032;-75
2023/12/27 11:02:51;;;;;;;10.82;3.47;;;;;;;8.03;100.00;101304.94;4899413;29;20040;-72
2023/12/27 11:05:19;;;;;;;13.20;3.80;;;;;;;8.06;100.00;101294.06;4896852;29;20107;-73
2023/12/27 11:07:45;;;;;;;8.55;3.05;;;;;;;8.07;100.00;101282.41;4896654;29;20100;-72
2023/12/27 11:10:14;;;;;;;13.82;3.53;;;;;;;8.08;100.00;101288.63;4902601;29;20319;-72